Aérodrome :
LOGIN :

S'inscrire | Disclaimer

   EN    FR    IT 

 










Légende :    VFR   VFR Marginal   IFR   IFR Intensif   IFR Très Intensif
Visi : 
Plafond : 
>= 8 km
>= 3000ft
5 à 8 km
1000 à 3000 ft
1500m à 5 km
500 à 1000 ft
800 à 1500m
200 à 500 ft
< 800m
< 200 ft
Symboles :   Orages  Brouillard  Fortes neiges  Fortes précipitations  Vent > 20 kt
SIGMETs :   Divers  Orages  Givrage  Turbulence  Onde Orograph.  Cendres Volcan.






- Altitude de l'aérodrome : 3 ft
- Code IATA : DHR


EHKD - Den Helder De Kooy

DERNIER METAR :
  • 232135Z AUTO 19017KT 9999 -SHRA SCT015CB BKN077 OVC083 16/14 Q0996 WHT

METARs EXPIRÉS :
  • 232131Z AUTO 19017KT 9999 SHRA BKN015CB SCT074 OVC081 16/14 Q0996 WHT
  • 232125Z AUTO 18016KT 9999 -SHRA BKN015CB BKN079 OVC085 16/14 Q0996 REDZ WHT
  • 232058Z AUTO 18017KT 9999 -RA SCT015CB BKN085 OVC091 16/15 Q0996 WHT
  • 232039Z AUTO 17013KT 140V200 9999 -RA SCT015CB BKN081 OVC088 16/15 Q0997 WHT TEMPO 4000 SHRA SCT018CB
  • 232025Z AUTO 16012KT 130V200 9999 SCT062 SCT074 BKN084 16/15 Q0997 BLU TEMPO 4000 SHRA SCT018CB
  • 231955Z AUTO 18012KT 9999 FEW015CB BKN060 OVC065 17/15 Q0997 BLU TEMPO 4000 SHRA SCT018CB
  • 231937Z AUTO 18011KT 9999 -RA FEW015CB SCT034 BKN039 OVC046 17/15 Q0998 BLU TEMPO 4000 SHRA SCT018CB
  • 231925Z AUTO 17009KT 9999 -DZRA SCT042 SCT047 BKN052 17/15 Q0998 BLU TEMPO 4000 SHRA SCT018CB
  • 231855Z AUTO 18009KT 9999 SCT047 SCT056 OVC100 17/14 Q0998 BLU TEMPO 4000 SHRA SCT018CB

TAF TAF EHKD
Valide du 23 à 17h jusqu'au 24 à 05h UTC


231646Z 2317/2405 21020G30KT 9999 SCT015
TEMPO 2317/2401 4000 SHRA SCT015 SCT020CB
TEMPO 2317/2321 18015KT
PROB30
TEMPO 2319/2324 3000 TSRA SCT012 SCT018CB
TEMPO 2323/2405 24025G40KT
BECMG 2400/2402 SCT040



MET'MAP, la Météo Aéronautique d'un coup d'oeil ! - Copyright ORBIFLY Décembre 2007 - Disclaimer

ORBIFLY MET'MAP TEAM :

Programmation & Développement : Alexandra Zaïnal
Sur une idée originale de : Baudouin d'Aumeries
Assistance à la programmation : Marc-Olivier Méhu
Soutien technique & logistique : Manuel Goepfert

Contact : metmap@orbifly.com




SOURCES & CREDITS :

   NOAA